Time;durP1;ratioP1;P1;durP2;ratioP2;P2;SDS_P1;SDS_P2;PMS_P1;PMS_P2;Temp;Humidity;BMP_temperature;BMP_pressure;BME280_temperature;BME280_humidity;BME280_pressure;Samples;Min_cycle;Max_cycle;Signal;HPM_P1;HPM_P2
2022/06/25 00:01:48;;;;;;;4.63;1.40;;;17.40;99.90;;;18.25;100.00;97702.78;5064103;28;20491;-77
2022/06/25 00:07:04;;;;;;;2.73;1.53;;;17.40;99.90;;;18.14;100.00;97703.69;5065228;28;20963;-77
2022/06/25 00:09:34;;;;;;;2.90;1.90;;;17.30;99.90;;;18.10;100.00;97711.31;5060472;28;20452;-77
2022/06/25 00:14:53;;;;;;;3.53;1.37;;;17.30;99.90;;;18.11;100.00;97707.63;5064595;28;20495;-77
2022/06/25 00:17:22;;;;;;;4.10;1.80;;;17.20;99.90;;;18.09;100.00;97721.09;5062894;28;20460;-77
2022/06/25 00:19:52;;;;;;;3.60;1.80;;;17.20;99.90;;;18.05;100.00;97713.88;5066439;28;20828;-77
2022/06/25 00:22:22;;;;;;;1.87;1.40;;;17.20;99.90;;;18.04;100.00;97723.66;5061598;28;20464;-77
2022/06/25 00:24:54;;;;;;;3.13;1.43;;;17.10;99.90;;;18.04;100.00;97712.28;5062408;28;20461;-77
2022/06/25 00:27:23;;;;;;;3.83;1.77;;;17.20;99.90;;;18.05;100.00;97724.44;5064285;28;20554;-77
2022/06/25 00:29:53;;;;;;;3.30;1.90;;;17.10;99.90;;;18.02;100.00;97724.94;5068015;28;20875;-77
2022/06/25 00:32:21;;;;;;;2.13;1.60;;;17.10;99.90;;;18.05;100.00;97735.03;5062496;28;20464;-77
2022/06/25 00:34:51;;;;;;;5.33;2.30;;;17.10;99.90;;;18.01;100.00;97733.94;5065626;28;20857;-77
2022/06/25 00:37:21;;;;;;;1.60;1.40;;;17.10;99.90;;;18.00;100.00;97735.78;5066070;28;20943;-76
2022/06/25 00:39:50;;;;;;;2.97;1.73;;;17.10;99.90;;;17.99;100.00;97731.53;5064403;28;20460;-77
2022/06/25 00:42:21;;;;;;;2.90;1.73;;;17.10;99.90;;;18.00;100.00;97734.97;5061675;28;21229;-76
2022/06/25 00:44:52;;;;;;;3.40;1.90;;;17.10;99.90;;;18.01;100.00;97739.22;5063071;28;20492;-77
2022/06/25 00:47:23;;;;;;;1.83;1.60;;;17.10;99.90;;;17.99;100.00;97734.16;5062360;28;20457;-77
2022/06/25 00:49:53;;;;;;;5.70;1.80;;;17.10;99.90;;;17.98;100.00;97734.41;5061927;28;20482;-77
2022/06/25 00:52:27;;;;;;;4.70;2.03;;;17.10;99.90;;;17.96;100.00;97731.19;5062201;28;20472;-77
2022/06/25 00:55:03;;;;;;;7.37;1.77;;;17.10;99.90;;;17.94;100.00;97735.94;5064186;28;20489;-77
2022/06/25 00:57:36;;;;;;;2.13;1.60;;;17.10;99.90;;;17.94;100.00;97741.25;5062658;28;20507;-77
2022/06/25 01:00:11;;;;;;;1.93;1.37;;;17.10;99.90;;;17.91;100.00;97736.44;5063499;28;20471;-77
2022/06/25 01:02:42;;;;;;;2.73;2.00;;;17.10;99.90;;;17.93;100.00;97747.56;5064414;28;20463;-77
2022/06/25 01:05:15;;;;;;;2.97;2.07;;;17.10;99.90;;;17.95;100.00;97751.56;5065575;28;20460;-77
2022/06/25 01:07:49;;;;;;;2.83;1.73;;;17.10;99.90;;;17.96;100.00;97757.66;5063643;28;20487;-77
2022/06/25 01:10:21;;;;;;;1.90;1.53;;;17.10;99.90;;;17.96;100.00;97765.59;5061659;28;21248;-77
2022/06/25 01:12:52;;;;;;;2.70;1.50;;;17.10;99.90;;;17.99;100.00;97757.19;5062608;28;20460;-77
2022/06/25 01:15:21;;;;;;;6.00;1.60;;;17.00;99.90;;;18.01;100.00;97760.41;5061816;28;20452;-77
2022/06/25 01:17:53;;;;;;;2.43;1.50;;;17.10;99.90;;;18.03;100.00;97758.31;5061182;28;20977;-76
2022/06/25 01:20:24;;;;;;;3.40;1.93;;;17.10;99.90;;;18.04;100.00;97754.63;5063239;28;20550;-76
2022/06/25 01:22:56;;;;;;;3.33;2.27;;;17.10;99.90;;;18.06;100.00;97763.91;5064181;28;20493;-76
2022/06/25 01:25:33;;;;;;;3.93;1.70;;;17.10;99.90;;;18.09;100.00;97754.69;5061532;28;20460;-77
2022/06/25 01:28:02;;;;;;;3.97;1.60;;;17.20;99.90;;;18.11;100.00;97760.56;5061113;28;20538;-77
2022/06/25 01:30:32;;;;;;;3.00;2.13;;;17.20;99.90;;;18.14;100.00;97759.25;5064789;28;20557;-77
2022/06/25 01:33:02;;;;;;;6.07;2.07;;;17.20;99.90;;;18.15;100.00;97766.16;5066995;28;20444;-77
2022/06/25 01:35:32;;;;;;;2.03;1.63;;;17.20;99.90;;;18.18;100.00;97761.19;5064142;28;20464;-77
2022/06/25 01:38:03;;;;;;;2.50;1.80;;;17.20;99.90;;;18.20;100.00;97761.75;5062611;28;20858;-77
2022/06/25 01:40:33;;;;;;;2.87;2.00;;;17.30;99.90;;;18.24;100.00;97760.22;5066070;28;20444;-77
2022/06/25 01:43:05;;;;;;;4.20;1.90;;;17.30;99.90;;;18.24;100.00;97760.22;5063638;28;20476;-77
2022/06/25 01:45:38;;;;;;;3.00;2.17;;;17.30;99.90;;;18.25;100.00;97756.53;5064878;28;20472;-77
2022/06/25 01:48:09;;;;;;;3.77;2.23;;;17.40;99.90;;;18.25;100.00;97745.94;5064665;28;20448;-77
2022/06/25 01:50:40;;;;;;;3.53;2.20;;;17.40;99.90;;;18.24;100.00;97749.63;5061522;28;21156;-77
2022/06/25 01:53:12;;;;;;;4.10;2.40;;;17.40;99.90;;;18.24;100.00;97754.91;5061479;28;20460;-77
2022/06/25 01:55:43;;;;;;;5.30;2.00;;;17.40;99.90;;;18.24;100.00;97757.56;5060258;28;20465;-77
2022/06/25 01:58:13;;;;;;;2.50;2.07;;;17.30;99.90;;;18.22;100.00;97757.03;5062738;28;20945;-77
2022/06/25 02:00:45;;;;;;;3.40;2.27;;;17.40;99.90;;;18.21;100.00;97767.84;5060817;28;21038;-77
2022/06/25 02:03:16;;;;;;;2.70;1.93;;;17.30;99.90;;;18.20;100.00;97763.56;5058660;28;20920;-77
2022/06/25 02:05:59;;;;;;;2.70;2.30;;;17.30;99.90;;;18.19;100.00;97767.28;5059756;28;20472;-77
2022/06/25 02:08:36;;;;;;;2.20;1.80;;;17.30;99.90;;;18.16;100.00;97765.91;5060508;28;20456;-77
2022/06/25 02:11:09;;;;;;;5.87;2.30;;;17.40;99.90;;;18.15;100.00;97761.69;5062987;28;20470;-77
2022/06/25 02:13:39;;;;;;;3.30;2.23;;;17.30;99.90;;;18.14;100.00;97762.72;5063126;28;21279;-76
2022/06/25 02:16:08;;;;;;;2.93;2.57;;;17.30;99.90;;;18.14;100.00;97772.50;5060797;28;20463;-77
2022/06/25 02:18:39;;;;;;;2.80;2.27;;;17.20;99.90;;;18.13;100.00;97765.59;5058701;28;20480;-77
2022/06/25 02:21:08;;;;;;;4.13;2.67;;;17.20;99.90;;;18.08;100.00;97761.81;5061743;28;20452;-77
2022/06/25 02:23:41;;;;;;;5.53;2.27;;;17.20;99.90;;;18.06;100.00;97760.47;5060292;28;20499;-77
2022/06/25 02:26:11;;;;;;;3.23;1.90;;;17.20;99.90;;;18.06;100.00;97760.47;5059846;28;20507;-77
2022/06/25 02:28:41;;;;;;;2.93;2.40;;;17.10;99.90;;;18.03;100.00;97767.03;5060673;28;20468;-77
2022/06/25 02:31:12;;;;;;;3.63;2.50;;;17.10;99.90;;;18.04;100.00;97766.00;5062525;28;20508;-77
2022/06/25 02:33:42;;;;;;;3.10;2.53;;;17.10;99.90;;;18.00;100.00;97766.72;5060781;28;20576;-77
2022/06/25 02:36:12;;;;;;;4.00;2.70;;;17.10;99.90;;;17.98;100.00;97772.25;5062699;28;20954;-77
2022/06/25 02:38:44;;;;;;;3.37;2.83;;;17.10;99.90;;;17.92;100.00;97773.22;5063791;28;20966;-77
2022/06/25 02:41:15;;;;;;;2.93;2.37;;;17.10;99.90;;;17.91;100.00;97781.41;5062227;28;20442;-77
2022/06/25 02:43:45;;;;;;;3.37;2.47;;;17.00;99.90;;;17.87;100.00;97780.28;5063582;28;20488;-77
2022/06/25 02:46:16;;;;;;;3.60;2.97;;;17.00;99.90;;;17.84;100.00;97786.06;5066590;28;20515;-77
2022/06/25 02:48:47;;;;;;;8.30;2.93;;;17.00;99.90;;;17.77;100.00;97780.13;5062548;28;20452;-77
2022/06/25 02:51:17;;;;;;;3.50;2.43;;;16.90;99.90;;;17.75;100.00;97782.97;5061230;28;20954;-77
2022/06/25 02:53:48;;;;;;;8.07;2.73;;;16.90;99.90;;;17.68;100.00;97779.69;5063233;28;20456;-77
2022/06/25 02:59:19;;;;;;;4.63;3.00;;;16.80;99.90;;;17.60;100.00;97780.06;5003115;28;20978;-77
2022/06/25 03:01:49;;;;;;;8.50;2.87;;;16.80;99.90;;;17.56;100.00;97777.09;5049684;28;20484;-77
2022/06/25 03:04:19;;;;;;;5.63;3.37;;;16.80;99.90;;;17.52;100.00;97777.81;5061436;28;20507;-77
2022/06/25 03:06:50;;;;;;;10.77;7.40;;;16.70;99.90;;;17.51;100.00;97781.47;5062530;28;20452;-85
2022/06/25 03:09:21;;;;;;;6.03;4.07;;;16.70;99.90;;;17.46;100.00;97782.19;5062501;28;20784;-76
2022/06/25 03:11:51;;;;;;;6.70;2.83;;;16.70;99.90;;;17.42;100.00;97775.75;5062013;28;20461;-77
2022/06/25 03:14:21;;;;;;;6.00;3.10;;;16.60;99.90;;;17.39;100.00;97783.38;5063849;28;20812;-77
2022/06/25 03:16:52;;;;;;;3.67;2.97;;;16.60;99.90;;;17.37;100.00;97780.97;5067542;28;20987;-86
2022/06/25 03:19:23;;;;;;;5.73;3.77;;;16.60;99.90;;;17.36;100.00;97776.72;5070768;28;20460;-83
2022/06/25 03:21:53;;;;;;;8.57;3.27;;;16.60;99.90;;;17.36;100.00;97779.34;5067844;28;20489;-77
2022/06/25 03:24:25;;;;;;;6.47;3.70;;;16.50;99.90;;;17.35;100.00;97780.41;5067901;28;20459;-77
2022/06/25 03:26:55;;;;;;;4.57;3.60;;;16.50;99.90;;;17.34;100.00;97781.44;5069542;28;20455;-77
2022/06/25 03:29:25;;;;;;;8.23;3.67;;;16.50;99.90;;;17.34;100.00;97784.09;5068783;28;21017;-76
2022/06/25 03:31:56;;;;;;;4.57;3.57;;;16.40;99.90;;;17.33;100.00;97784.31;5067574;28;20448;-76
2022/06/25 03:34:26;;;;;;;5.80;3.40;;;16.40;99.90;;;17.27;100.00;97772.03;5070923;28;20514;-77
2022/06/25 03:36:56;;;;;;;3.90;3.43;;;16.40;99.90;;;17.24;100.00;97775.16;5070511;28;20494;-77
2022/06/25 03:39:27;;;;;;;5.50;3.87;;;16.40;99.90;;;17.20;100.00;97776.66;5066517;28;20464;-84
2022/06/25 03:41:58;;;;;;;23.47;12.40;;;16.40;99.90;;;17.18;100.00;97786.69;5068476;28;20441;-85
2022/06/25 03:44:28;;;;;;;9.40;5.40;;;16.40;99.90;;;17.15;100.00;97780.00;5070827;28;20489;-77
2022/06/25 03:46:58;;;;;;;5.07;4.00;;;16.40;99.90;;;17.14;100.00;97791.63;5067504;28;20460;-77
2022/06/25 03:49:28;;;;;;;6.53;3.80;;;16.40;99.90;;;17.11;100.00;97792.09;5065787;28;20474;-77
2022/06/25 03:51:57;;;;;;;4.53;3.60;;;16.40;99.90;;;17.11;100.00;97802.69;5068963;28;20551;-77
2022/06/25 03:54:29;;;;;;;5.60;4.10;;;16.30;99.90;;;17.14;100.00;97796.91;5067525;28;20464;-75
2022/06/25 03:56:58;;;;;;;13.07;7.77;;;16.30;99.90;;;17.15;100.00;97800.38;5067498;28;20468;-79
2022/06/25 03:59:29;;;;;;;7.17;4.97;;;16.30;99.90;;;17.14;100.00;97794.28;5065740;28;20466;-77
2022/06/25 04:01:59;;;;;;;6.07;4.53;;;16.30;99.90;;;17.14;100.00;97802.22;5065326;28;20456;-77
2022/06/25 04:04:29;;;;;;;6.97;3.93;;;16.30;99.90;;;17.10;100.00;97795.78;5067750;28;20990;-77
2022/06/25 04:06:59;;;;;;;4.83;4.03;;;16.30;99.90;;;17.09;100.00;97805.53;5066372;28;20468;-77
2022/06/25 04:09:33;;;;;;;6.63;3.87;;;16.30;99.90;;;17.09;100.00;97810.03;5068173;28;20844;-77
2022/06/25 04:12:04;;;;;;;5.20;3.77;;;16.30;99.90;;;17.09;100.00;97810.03;5067536;28;20509;-77
2022/06/25 04:14:33;;;;;;;4.80;4.00;;;16.30;99.90;;;17.08;100.00;97814.50;5070431;28;20447;-77
2022/06/25 04:17:04;;;;;;;6.60;4.20;;;16.20;99.90;;;17.09;100.00;97815.31;5066690;28;20438;-77
2022/06/25 04:19:39;;;;;;;7.70;5.03;;;16.30;99.90;;;17.13;100.00;97813.81;5067298;28;20847;-83
2022/06/25 04:22:10;;;;;;;7.23;4.57;;;16.30;99.90;;;17.17;100.00;97816.78;5071971;28;20545;-85
2022/06/25 04:24:43;;;;;;;7.17;4.53;;;16.30;99.90;;;17.18;100.00;97813.88;5067120;28;20521;-77
2022/06/25 04:29:03;;;;;;;6.30;4.50;;;16.30;99.90;;;17.21;100.00;97813.44;5063453;28;20441;-77
2022/06/25 04:30:01;;;;;;;6.60;5.00;;;16.30;99.90;;;17.21;100.00;97813.44;5062471;28;20460;-77
2022/06/25 04:32:31;;;;;;;8.30;4.70;;;16.30;99.90;;;17.23;100.00;97814.00;5062936;28;20986;-76
2022/06/25 04:35:01;;;;;;;8.13;4.00;;;16.30;99.90;;;17.24;100.00;97818.25;5062642;28;20465;-76
2022/06/25 04:37:30;;;;;;;4.17;3.60;;;16.30;99.90;;;17.26;100.00;97818.00;5063175;28;20962;-76
2022/06/25 04:40:04;;;;;;;5.00;4.10;;;16.30;99.90;;;17.25;100.00;97814.56;5063441;28;20517;-77
2022/06/25 04:42:35;;;;;;;5.53;3.80;;;16.30;99.90;;;17.26;100.00;97816.16;5063234;28;20982;-76
2022/06/25 04:45:05;;;;;;;5.30;4.03;;;16.40;99.90;;;17.27;100.00;97823.06;5062613;28;20508;-77
2022/06/25 04:47:35;;;;;;;7.30;4.80;;;16.40;99.90;;;17.29;100.00;97820.97;5063601;28;20949;-77
2022/06/25 04:50:07;;;;;;;6.50;4.20;;;16.40;99.90;;;17.34;100.00;97817.66;5059623;28;21008;-77
2022/06/25 04:52:38;;;;;;;6.23;4.67;;;16.50;99.90;;;17.36;100.00;97826.94;5061937;28;20476;-77
2022/06/25 04:55:10;;;;;;;6.57;4.43;;;16.50;99.90;;;17.41;100.00;97824.41;5061168;28;20459;-76
2022/06/25 04:57:41;;;;;;;5.30;3.93;;;16.60;99.90;;;17.45;100.00;97822.91;5064854;28;20456;-77
2022/06/25 05:00:14;;;;;;;4.07;3.50;;;16.60;99.90;;;17.47;100.00;97823.44;5067406;28;20962;-77
2022/06/25 05:02:44;;;;;;;10.17;3.47;;;16.60;99.90;;;17.50;100.00;97822.97;5067242;28;20508;-77
2022/06/25 05:05:15;;;;;;;4.20;3.80;;;16.60;99.90;;;17.52;100.00;97823.56;5067248;28;20440;-77
2022/06/25 05:07:45;;;;;;;4.77;4.27;;;16.70;99.90;;;17.55;100.00;97830.22;5066060;28;20503;-77
2022/06/25 05:10:16;;;;;;;4.43;3.80;;;16.60;99.90;;;17.60;100.00;97828.47;5067928;28;20448;-77
2022/06/25 05:15:33;;;;;;;7.33;4.50;;;16.70;99.90;;;17.68;100.00;97834.44;5066158;28;20502;-76
2022/06/25 05:18:03;;;;;;;8.17;5.70;;;16.70;99.90;;;17.71;100.00;97840.03;5063694;28;20448;-76
2022/06/25 05:20:37;;;;;;;11.60;6.43;;;16.80;99.90;;;17.75;100.00;97840.38;5067399;28;20513;-77
2022/06/25 05:23:07;;;;;;;10.63;6.43;;;16.90;99.90;;;17.74;100.00;97841.41;5066852;28;20480;-77
2022/06/25 05:25:37;;;;;;;7.60;5.40;;;16.80;99.90;;;17.81;100.00;97844.69;5067127;28;20444;-77
2022/06/25 05:28:09;;;;;;;7.63;5.13;;;16.90;99.90;;;17.86;100.00;97853.56;5067485;28;20461;-76
2022/06/25 05:30:40;;;;;;;8.80;5.50;;;17.00;99.90;;;17.90;100.00;97854.69;5066672;28;20934;-77
2022/06/25 05:33:10;;;;;;;6.33;5.20;;;17.10;99.90;;;17.93;100.00;97843.63;5065852;28;20463;-77
2022/06/25 05:35:40;;;;;;;7.37;5.40;;;17.10;99.90;;;18.00;100.00;97856.69;5066964;28;20448;-77
2022/06/25 05:38:10;;;;;;;14.67;6.20;;;17.10;99.90;;;18.04;100.00;97849.88;5065043;28;20444;-77
2022/06/25 05:40:42;;;;;;;8.00;5.90;;;17.20;99.90;;;18.04;100.00;97861.28;5064841;28;20460;-77
2022/06/25 05:43:12;;;;;;;13.93;5.93;;;17.30;99.90;;;18.12;100.00;97846.06;5065177;28;21017;-77
2022/06/25 05:45:41;;;;;;;7.30;5.60;;;17.40;99.90;;;18.16;100.00;97842.66;5066870;28;20467;-77
2022/06/25 05:48:12;;;;;;;7.23;5.40;;;17.40;99.90;;;18.14;100.00;97849.25;5066535;28;20455;-78
2022/06/25 05:50:42;;;;;;;7.70;5.27;;;17.50;99.90;;;18.13;100.00;97850.28;5065576;28;20450;-77
2022/06/25 05:53:13;;;;;;;7.50;5.80;;;17.50;99.90;;;18.09;100.00;97857.91;5064924;28;20828;-77
2022/06/25 05:55:45;;;;;;;9.10;5.93;;;17.30;99.90;;;18.14;100.00;97858.00;5066337;28;20827;-77
2022/06/25 05:58:16;;;;;;;8.73;6.27;;;17.30;99.90;;;18.16;100.00;97857.75;5062072;28;20445;-77
2022/06/25 06:00:45;;;;;;;7.93;5.63;;;17.30;99.90;;;18.22;100.00;97859.44;5067761;28;20527;-77
2022/06/25 06:03:15;;;;;;;11.47;6.00;;;17.50;99.90;;;18.24;100.00;97860.81;5064565;28;20925;-76
2022/06/25 06:05:45;;;;;;;10.20;5.30;;;17.40;99.90;;;18.23;100.00;97864.50;5064562;28;20468;-77
2022/06/25 06:08:18;;;;;;;10.10;5.37;;;17.40;99.90;;;18.23;100.00;97864.50;5065406;28;20457;-77
2022/06/25 06:10:49;;;;;;;12.30;6.10;;;17.30;99.90;;;18.28;100.00;97866.44;5065464;28;21016;-77
2022/06/25 06:13:22;;;;;;;6.17;4.50;;;17.40;99.90;;;18.31;100.00;97864.09;5066438;28;20460;-77
2022/06/25 06:15:51;;;;;;;10.57;5.10;;;17.40;99.90;;;18.35;100.00;97867.06;5065227;28;20448;-77
2022/06/25 06:18:22;;;;;;;8.33;4.50;;;17.60;99.90;;;18.34;100.00;97866.25;5064755;28;20477;-77
2022/06/25 06:20:52;;;;;;;9.33;5.63;;;17.40;99.90;;;18.39;100.00;97863.72;5065138;28;20476;-77
2022/06/25 06:23:23;;;;;;;9.33;4.90;;;17.50;99.90;;;18.46;100.00;97858.25;5064816;28;20465;-78
2022/06/25 06:25:54;;;;;;;7.90;5.10;;;17.60;99.90;;;18.52;100.00;97860.75;5064708;28;20460;-77
2022/06/25 06:28:24;;;;;;;7.53;4.60;;;17.70;99.90;;;18.50;100.00;97852.22;5065872;28;20453;-77
2022/06/25 06:30:54;;;;;;;7.90;4.67;;;17.70;99.90;;;18.55;100.00;97852.31;5065967;28;20448;-77
2022/06/25 06:33:24;;;;;;;7.00;4.77;;;17.80;99.90;;;18.58;100.00;97856.31;5066765;28;20440;-77
2022/06/25 06:35:55;;;;;;;6.10;4.40;;;17.90;99.90;;;18.57;100.00;97855.53;5064641;28;20506;-77
2022/06/25 06:38:25;;;;;;;5.00;3.63;;;17.80;99.90;;;18.57;100.00;97857.38;5065064;28;20965;-76
2022/06/25 06:40:57;;;;;;;6.10;4.63;;;17.80;99.90;;;18.53;100.00;97858.91;5065160;28;20526;-76
2022/06/25 06:43:26;;;;;;;10.33;5.20;;;17.70;99.90;;;18.56;100.00;97861.88;5066044;28;21247;-76
2022/06/25 06:45:57;;;;;;;5.30;4.13;;;17.70;99.90;;;18.65;100.00;97866.75;5065701;28;20468;-76
2022/06/25 06:48:26;;;;;;;6.53;4.50;;;17.90;99.90;;;18.69;100.00;97871.31;5066200;28;20467;-77
2022/06/25 06:50:56;;;;;;;5.90;4.50;;;17.90;99.90;;;18.73;100.00;97872.44;5065056;28;20465;-76
2022/06/25 06:53:28;;;;;;;4.67;4.00;;;18.00;99.90;;;18.77;100.00;97870.13;5064617;28;20584;-76
2022/06/25 06:55:59;;;;;;;5.97;4.00;;;18.00;99.90;;;18.86;100.00;97864.16;5063691;28;20543;-77
2022/06/25 06:58:29;;;;;;;6.13;3.87;;;18.20;99.90;;;18.91;100.00;97855.47;5065616;28;20459;-76
2022/06/25 07:00:59;;;;;;;8.47;4.23;;;18.10;99.90;;;18.97;100.00;97855.31;5065009;28;20484;-77
2022/06/25 07:03:30;;;;;;;6.60;4.20;;;18.20;99.90;;;19.03;100.00;97849.00;5065004;28;20813;-76
2022/06/25 07:05:59;;;;;;;6.17;4.03;;;18.30;99.90;;;19.06;100.00;97859.13;5063697;28;20479;-77
2022/06/25 07:08:30;;;;;;;6.23;3.53;;;18.30;99.90;;;19.17;100.00;97859.25;5064609;28;20460;-76
2022/06/25 07:11:01;;;;;;;4.10;3.60;;;18.40;99.90;;;19.22;100.00;97852.19;5065367;28;21155;-76
2022/06/25 07:13:32;;;;;;;4.50;3.47;;;18.50;99.90;;;19.28;100.00;97850.38;5062655;28;20460;-76
2022/06/25 07:16:02;;;;;;;7.53;4.13;;;18.60;99.90;;;19.33;100.00;97851.22;5062130;28;20485;-77
2022/06/25 07:18:31;;;;;;;6.63;3.87;;;18.60;99.90;;;19.38;100.00;97846.00;5064787;28;20452;-76
2022/06/25 07:21:02;;;;;;;5.00;3.60;;;18.70;99.90;;;19.41;100.00;97847.38;5065225;28;20458;-76
2022/06/25 07:23:33;;;;;;;10.40;3.77;;;18.60;99.90;;;19.42;100.00;97855.09;5065837;28;20507;-76
2022/06/25 07:26:04;;;;;;;8.37;4.57;;;18.70;99.90;;;19.44;100.00;97852.97;5063273;28;20491;-76
2022/06/25 07:28:35;;;;;;;9.97;4.60;;;18.70;99.90;;;19.47;100.00;97849.06;5065477;28;20579;-76
2022/06/25 07:31:04;;;;;;;7.80;4.03;;;18.80;99.90;;;19.44;100.00;97849.53;5064514;28;20497;-77
2022/06/25 07:33:34;;;;;;;13.20;5.60;;;18.70;99.90;;;19.45;100.00;97861.75;5064410;28;20468;-76
2022/06/25 07:36:03;;;;;;;11.13;4.57;;;18.60;99.90;;;19.44;100.00;97860.94;5063892;28;20463;-77
2022/06/25 07:38:35;;;;;;;10.30;4.63;;;18.60;99.90;;;19.41;100.00;97866.75;5064136;28;20505;-77
2022/06/25 07:41:06;;;;;;;9.57;4.77;;;18.60;99.90;;;19.41;100.00;97855.31;5063467;28;20526;-77
2022/06/25 07:43:36;;;;;;;9.83;5.00;;;18.60;99.90;;;19.43;100.00;97862.00;5064800;28;20459;-76
2022/06/25 07:46:06;;;;;;;8.33;4.90;;;18.60;99.90;;;19.44;100.00;97858.28;5062714;28;20488;-77
2022/06/25 07:48:36;;;;;;;7.27;5.03;;;18.60;99.90;;;19.44;100.00;97860.94;5063380;28;20455;-77
2022/06/25 07:53:53;;;;;;;7.20;5.37;;;18.60;99.90;;;19.47;100.00;97860.44;5063450;28;20452;-77
2022/06/25 07:56:25;;;;;;;9.10;6.00;;;18.60;99.90;;;19.51;100.00;97850.94;5064023;28;20460;-76
2022/06/25 07:58:56;;;;;;;11.70;5.87;;;18.70;99.90;;;19.54;100.00;97858.41;5062600;28;20517;-77
2022/06/25 08:01:26;;;;;;;10.73;5.60;;;18.80;99.90;;;19.57;100.00;97849.16;5063912;28;20468;-77
2022/06/25 08:03:57;;;;;;;6.20;4.97;;;18.90;99.90;;;19.62;100.00;97848.38;5067922;28;20473;-77
2022/06/25 08:06:27;;;;;;;14.70;5.63;;;18.80;99.90;;;19.66;100.00;97846.84;5067857;28;20456;-76
2022/06/25 08:08:57;;;;;;;8.13;6.20;;;18.90;99.90;;;19.69;100.00;97844.50;5069204;28;20463;-77
2022/06/25 08:11:29;;;;;;;8.93;5.60;;;18.90;99.90;;;19.74;100.00;97833.94;5068239;28;20527;-77
2022/06/25 08:13:59;;;;;;;8.40;6.00;;;19.00;99.90;;;19.80;100.00;97832.13;5068073;28;20448;-77
2022/06/25 08:16:28;;;;;;;5.30;4.77;;;19.10;99.90;;;19.87;100.00;97832.72;5067107;28;20460;-76
2022/06/25 08:18:58;;;;;;;7.20;4.90;;;19.20;99.90;;;19.86;100.00;97825.81;5068549;28;20437;-77
2022/06/25 08:21:28;;;;;;;8.73;5.20;;;19.10;99.90;;;19.91;100.00;97833.84;5066308;28;20552;-76
2022/06/25 08:23:57;;;;;;;9.23;5.90;;;19.10;99.90;;;19.94;100.00;97839.44;5068015;28;20825;-76
2022/06/25 08:26:29;;;;;;;7.20;5.40;;;19.10;99.90;;;20.01;100.00;97841.88;5068125;28;20537;-77
2022/06/25 08:28:59;;;;;;;16.37;5.30;;;19.20;99.90;;;20.08;100.00;97847.78;5067545;28;20572;-76
2022/06/25 08:31:29;;;;;;;6.43;4.33;;;19.30;99.90;;;20.17;100.00;97843.59;5067616;28;20463;-76
2022/06/25 08:33:59;;;;;;;7.20;4.97;;;19.40;99.90;;;20.16;100.00;97843.88;5069238;28;20457;-76
2022/06/25 08:36:28;;;;;;;6.20;4.37;;;19.30;99.90;;;20.24;100.00;97844.19;5066212;28;20475;-77
2022/06/25 08:38:58;;;;;;;7.50;4.10;;;19.40;99.90;;;20.35;100.00;97845.91;5068139;28;20443;-77
2022/06/25 08:41:29;;;;;;;7.13;3.40;;;19.70;99.90;;;20.42;100.00;97841.19;5067638;28;20453;-77
2022/06/25 08:44:00;;;;;;;3.83;2.83;;;19.80;99.90;;;20.52;100.00;97843.09;5067797;28;20456;-77
2022/06/25 08:46:31;;;;;;;4.50;3.43;;;19.90;99.90;;;20.61;100.00;97844.25;5068679;28;20491;-76
2022/06/25 08:49:02;;;;;;;4.97;3.27;;;20.00;99.90;;;20.64;100.00;97840.28;5066679;28;20440;-77
2022/06/25 08:51:34;;;;;;;5.63;2.90;;;19.90;99.90;;;20.73;100.00;97836.06;5067697;28;20451;-76
2022/06/25 08:54:08;;;;;;;3.10;2.80;;;20.10;99.90;;;20.80;100.00;97841.94;5068568;28;20464;-77
2022/06/25 08:56:40;;;;;;;7.20;3.00;;;20.20;99.90;;;20.84;100.00;97837.72;5065991;28;20542;-76
2022/06/25 08:59:10;;;;;;;5.40;2.73;;;20.30;99.90;;;20.93;100.00;97841.50;5066541;28;20433;-77
2022/06/25 09:01:39;;;;;;;3.23;2.20;;;20.30;99.90;;;20.93;100.00;97838.84;5064404;28;20573;-76
2022/06/25 09:04:10;;;;;;;3.70;2.13;;;20.30;99.90;;;20.96;100.00;97827.69;5066902;28;20484;-77
2022/06/25 09:06:38;;;;;;;5.37;1.93;;;20.30;99.90;;;20.96;100.00;97831.13;5066644;28;20495;-76
2022/06/25 09:09:13;;;;;;;2.53;1.93;;;20.30;99.90;;;21.00;100.00;97826.09;5064853;28;20486;-76
2022/06/25 09:12:04;;;;;;;11.60;2.50;;;20.30;99.90;;;21.10;100.00;97823.53;5062513;28;20460;-76
2022/06/25 09:14:35;;;;;;;4.83;2.00;;;20.50;99.90;;;21.13;100.00;97820.38;5067138;28;20490;-76
2022/06/25 09:17:08;;;;;;;2.33;1.80;;;20.50;99.90;;;21.16;100.00;97817.19;5067462;28;20472;-77
2022/06/25 09:19:41;;;;;;;3.67;1.60;;;20.50;99.90;;;21.16;100.00;97803.88;5066499;28;20523;-77
2022/06/25 09:22:13;;;;;;;3.73;1.67;;;20.50;99.90;;;21.18;98.76;97812.38;5065746;28;21057;-77
2022/06/25 09:24:48;;;;;;;2.93;1.63;;;20.50;99.90;;;21.27;99.82;97818.81;5067772;28;20457;-77
2022/06/25 09:27:22;;;;;;;4.10;2.00;;;20.60;99.90;;;21.31;100.00;97821.75;5065501;28;20533;-77
2022/06/25 09:29:52;;;;;;;3.60;1.93;;;20.60;99.90;;;21.27;98.95;97821.47;5065805;28;20444;-76
2022/06/25 09:32:23;;;;;;;6.73;1.90;;;20.50;99.90;;;21.39;100.00;97824.69;5066177;28;20445;-76
2022/06/25 09:34:53;;;;;;;6.70;2.37;;;20.80;99.90;;;21.48;100.00;97827.66;5065779;28;20456;-76
2022/06/25 09:37:27;;;;;;;1.97;1.63;;;20.90;99.90;;;21.58;100.00;97823.16;5066428;28;20453;-77
2022/06/25 09:39:57;;;;;;;13.83;1.70;;;21.00;99.90;;;21.66;100.00;97821.06;5065907;28;20440;-77
2022/06/25 09:42:31;;;;;;;3.13;1.50;;;21.10;99.90;;;21.67;96.57;97815.44;5064998;28;20464;-77
2022/06/25 09:45:08;;;;;;;3.90;1.77;;;21.20;99.90;;;21.72;96.68;97817.34;5065865;28;20522;-77
2022/06/25 09:47:40;;;;;;;5.33;1.90;;;21.20;99.90;;;21.79;97.02;97820.53;5066094;28;20451;-76
2022/06/25 09:50:14;;;;;;;1.77;1.50;;;21.20;99.90;;;21.85;94.94;97812.28;5065701;28;20912;-76
2022/06/25 09:52:55;;;;;;;6.30;1.87;;;21.40;99.90;;;21.88;95.80;97805.63;5067128;28;20455;-77
2022/06/25 09:55:29;;;;;;;4.13;1.60;;;21.30;99.90;;;21.92;95.19;97812.06;5065335;28;20444;-76
2022/06/25 09:58:03;;;;;;;6.70;1.40;;;21.30;99.90;;;22.00;94.02;97808.88;5065958;28;20539;-77
2022/06/25 10:00:34;;;;;;;3.70;1.60;;;21.50;99.90;;;22.05;94.59;97817.66;5065156;28;20501;-77
2022/06/25 10:03:05;;;;;;;5.03;1.50;;;21.50;99.90;;;22.16;93.88;97815.78;5063000;28;20444;-76
2022/06/25 10:05:40;;;;;;;1.80;1.50;;;21.70;99.90;;;22.27;92.79;97804.06;5066931;28;21025;-76
2022/06/25 10:08:16;;;;;;;3.13;1.60;;;21.70;99.80;;;22.33;90.70;97813.66;5065183;28;20444;-76
2022/06/25 10:10:49;;;;;;;2.57;1.80;;;21.70;99.10;;;22.26;89.29;97817.66;5065365;28;20441;-76
2022/06/25 10:13:22;;;;;;;6.40;1.90;;;21.50;99.10;;;22.26;89.23;97818.44;5061292;28;20506;-76
2022/06/25 10:15:53;;;;;;;2.43;1.57;;;21.60;99.00;;;22.31;89.70;97821.13;5063215;28;20815;-76
2022/06/25 10:18:26;;;;;;;3.53;1.50;;;21.60;99.30;;;22.34;90.39;97828.59;5065995;28;20847;-76
2022/06/25 10:20:57;;;;;;;2.63;1.70;;;21.60;99.30;;;22.29;89.42;97811.78;5064731;28;20498;-76
2022/06/25 10:23:28;;;;;;;3.67;1.77;;;21.50;99.10;;;22.35;89.96;97808.84;5064131;28;20460;-77
2022/06/25 10:25:58;;;;;;;2.07;1.57;;;21.50;99.30;;;22.44;89.71;97803.78;5066271;28;20472;-77
2022/06/25 10:28:35;;;;;;;1.60;1.30;;;21.80;99.30;;;22.55;90.50;97803.50;5065675;28;20437;-76
2022/06/25 10:31:08;;;;;;;2.43;1.93;;;21.90;99.60;;;22.67;90.73;97791.75;5064361;28;20440;-76
2022/06/25 10:33:54;;;;;;;2.73;1.53;;;22.10;99.20;;;22.72;87.65;97810.44;5065882;28;20466;-77
2022/06/25 10:36:44;;;;;;;7.77;1.43;;;22.10;98.70;;;22.75;87.31;97804.53;5066003;28;20462;-76
2022/06/25 10:39:36;;;;;;;2.60;1.60;;;22.10;98.60;;;22.84;88.50;97802.94;5067046;28;20811;-76
2022/06/25 10:45:53;;;;;;;2.90;1.30;;;22.40;98.50;;;22.94;88.04;97797.56;5065116;28;20440;-76
2022/06/25 10:48:23;;;;;;;3.53;1.50;;;22.50;98.80;;;23.00;88.65;97786.59;5064546;28;20437;-77